sensor_id;sensor_type;location;lat;lon;timestamp;temperature;humidity
80426;DHT22;69766;51.476;5.704;2024-01-10T00:01:31;-4.70;99.90
80426;DHT22;69766;51.476;5.704;2024-01-10T00:03:56;-4.80;99.90
80426;DHT22;69766;51.476;5.704;2024-01-10T00:06:22;-4.80;99.90
80426;DHT22;69766;51.476;5.704;2024-01-10T00:08:48;-4.70;99.90
80426;DHT22;69766;51.476;5.704;2024-01-10T00:11:14;-4.70;99.90
80426;DHT22;69766;51.476;5.704;2024-01-10T00:13:40;-4.80;99.90
80426;DHT22;69766;51.476;5.704;2024-01-10T00:16:05;-4.90;99.90
80426;DHT22;69766;51.476;5.704;2024-01-10T00:18:31;-5.00;99.90
80426;DHT22;69766;51.476;5.704;2024-01-10T00:20:57;-5.10;99.90
80426;DHT22;69766;51.476;5.704;2024-01-10T00:23:23;-5.10;99.90
80426;DHT22;69766;51.476;5.704;2024-01-10T00:25:49;-5.00;99.90
80426;DHT22;69766;51.476;5.704;2024-01-10T00:28:14;-5.10;99.90
80426;DHT22;69766;51.476;5.704;2024-01-10T00:30:44;-5.10;99.90
80426;DHT22;69766;51.476;5.704;2024-01-10T00:33:10;-5.20;99.90
80426;DHT22;69766;51.476;5.704;2024-01-10T00:35:36;-5.30;99.90
80426;DHT22;69766;51.476;5.704;2024-01-10T00:38:02;-5.40;99.90
80426;DHT22;69766;51.476;5.704;2024-01-10T00:40:28;-5.40;99.90
80426;DHT22;69766;51.476;5.704;2024-01-10T00:42:53;-5.30;99.90
80426;DHT22;69766;51.476;5.704;2024-01-10T00:45:19;-5.30;99.90
80426;DHT22;69766;51.476;5.704;2024-01-10T00:47:44;-5.30;99.90
80426;DHT22;69766;51.476;5.704;2024-01-10T00:50:10;-5.20;99.90
80426;DHT22;69766;51.476;5.704;2024-01-10T00:52:36;-5.40;99.90
80426;DHT22;69766;51.476;5.704;2024-01-10T00:55:01;-5.20;99.90
80426;DHT22;69766;51.476;5.704;2024-01-10T00:57:27;-5.40;99.90
80426;DHT22;69766;51.476;5.704;2024-01-10T00:59:52;-5.40;99.90
80426;DHT22;69766;51.476;5.704;2024-01-10T01:02:18;-5.50;99.90
80426;DHT22;69766;51.476;5.704;2024-01-10T01:04:44;-5.60;99.90
80426;DHT22;69766;51.476;5.704;2024-01-10T01:07:09;-5.50;99.90
80426;DHT22;69766;51.476;5.704;2024-01-10T01:09:35;-5.60;99.90
80426;DHT22;69766;51.476;5.704;2024-01-10T01:12:00;-5.50;99.90
80426;DHT22;69766;51.476;5.704;2024-01-10T01:14:26;-5.50;99.90
80426;DHT22;69766;51.476;5.704;2024-01-10T01:16:52;-5.40;99.90
80426;DHT22;69766;51.476;5.704;2024-01-10T01:19:17;-5.50;99.90
80426;DHT22;69766;51.476;5.704;2024-01-10T01:21:43;-5.50;99.90
80426;DHT22;69766;51.476;5.704;2024-01-10T01:24:09;-5.40;99.90
80426;DHT22;69766;51.476;5.704;2024-01-10T01:26:34;-5.40;99.90
80426;DHT22;69766;51.476;5.704;2024-01-10T01:29:00;-5.30;99.90
80426;DHT22;69766;51.476;5.704;2024-01-10T01:31:25;-5.60;99.90
80426;DHT22;69766;51.476;5.704;2024-01-10T01:33:51;-5.50;99.90
80426;DHT22;69766;51.476;5.704;2024-01-10T01:36:17;-5.50;99.90
80426;DHT22;69766;51.476;5.704;2024-01-10T01:38:42;-5.50;99.90
80426;DHT22;69766;51.476;5.704;2024-01-10T01:41:08;-5.50;99.90
80426;DHT22;69766;51.476;5.704;2024-01-10T01:43:33;-5.50;99.90
80426;DHT22;69766;51.476;5.704;2024-01-10T01:46:00;-5.40;99.90
80426;DHT22;69766;51.476;5.704;2024-01-10T01:48:26;-5.50;99.90
80426;DHT22;69766;51.476;5.704;2024-01-10T01:50:53;-5.40;99.90
80426;DHT22;69766;51.476;5.704;2024-01-10T01:53:19;-5.50;99.90
80426;DHT22;69766;51.476;5.704;2024-01-10T01:55:45;-5.50;99.90
80426;DHT22;69766;51.476;5.704;2024-01-10T01:58:11;-5.40;99.90
80426;DHT22;69766;51.476;5.704;2024-01-10T02:00:40;-5.30;99.90
80426;DHT22;69766;51.476;5.704;2024-01-10T02:03:07;-5.40;99.90
80426;DHT22;69766;51.476;5.704;2024-01-10T02:05:33;-5.40;99.90
80426;DHT22;69766;51.476;5.704;2024-01-10T02:07:58;-5.40;99.90
80426;DHT22;69766;51.476;5.704;2024-01-10T02:10:24;-5.40;99.90
80426;DHT22;69766;51.476;5.704;2024-01-10T02:12:50;-5.40;99.90
80426;DHT22;69766;51.476;5.704;2024-01-10T02:15:15;-5.30;99.90
80426;DHT22;69766;51.476;5.704;2024-01-10T02:17:43;-5.40;99.90
80426;DHT22;69766;51.476;5.704;2024-01-10T02:20:12;-5.50;99.90
80426;DHT22;69766;51.476;5.704;2024-01-10T02:22:38;-5.40;99.90
80426;DHT22;69766;51.476;5.704;2024-01-10T02:25:05;-5.40;99.90
80426;DHT22;69766;51.476;5.704;2024-01-10T02:27:31;-5.30;99.90
80426;DHT22;69766;51.476;5.704;2024-01-10T02:29:57;-5.40;99.90
80426;DHT22;69766;51.476;5.704;2024-01-10T02:32:24;-5.30;99.90
80426;DHT22;69766;51.476;5.704;2024-01-10T02:34:49;-5.40;99.90
80426;DHT22;69766;51.476;5.704;2024-01-10T02:37:15;-5.20;99.90
80426;DHT22;69766;51.476;5.704;2024-01-10T02:39:41;-5.40;99.90
80426;DHT22;69766;51.476;5.704;2024-01-10T02:42:06;-5.30;99.90
80426;DHT22;69766;51.476;5.704;2024-01-10T02:44:32;-5.40;99.90
80426;DHT22;69766;51.476;5.704;2024-01-10T02:46:57;-5.30;99.90
80426;DHT22;69766;51.476;5.704;2024-01-10T02:49:23;-5.30;99.90
80426;DHT22;69766;51.476;5.704;2024-01-10T02:51:48;-5.30;99.90
80426;DHT22;69766;51.476;5.704;2024-01-10T02:54:14;-5.20;99.90
80426;DHT22;69766;51.476;5.704;2024-01-10T02:56:39;-5.30;99.90
80426;DHT22;69766;51.476;5.704;2024-01-10T02:59:05;-5.20;99.90
80426;DHT22;69766;51.476;5.704;2024-01-10T03:01:31;-5.20;99.90
80426;DHT22;69766;51.476;5.704;2024-01-10T03:03:56;-5.30;99.90
80426;DHT22;69766;51.476;5.704;2024-01-10T03:06:22;-5.30;99.90
80426;DHT22;69766;51.476;5.704;2024-01-10T03:08:48;-5.30;99.90
80426;DHT22;69766;51.476;5.704;2024-01-10T03:11:15;-5.30;99.90
80426;DHT22;69766;51.476;5.704;2024-01-10T03:13:43;-5.40;99.90
80426;DHT22;69766;51.476;5.704;2024-01-10T03:16:09;-5.30;99.90
80426;DHT22;69766;51.476;5.704;2024-01-10T03:18:34;-5.30;99.90
80426;DHT22;69766;51.476;5.704;2024-01-10T03:21:00;-5.30;99.90
80426;DHT22;69766;51.476;5.704;2024-01-10T03:23:25;-5.30;99.90
80426;DHT22;69766;51.476;5.704;2024-01-10T03:25:52;-5.30;99.90
80426;DHT22;69766;51.476;5.704;2024-01-10T03:28:18;-5.40;99.90
80426;DHT22;69766;51.476;5.704;2024-01-10T03:30:44;-5.30;99.90
80426;DHT22;69766;51.476;5.704;2024-01-10T03:33:09;-5.50;99.90
80426;DHT22;69766;51.476;5.704;2024-01-10T03:35:35;-5.40;99.90
80426;DHT22;69766;51.476;5.704;2024-01-10T03:38:00;-5.30;99.90
80426;DHT22;69766;51.476;5.704;2024-01-10T03:40:26;-5.30;99.90
80426;DHT22;69766;51.476;5.704;2024-01-10T03:42:51;-5.40;99.90
80426;DHT22;69766;51.476;5.704;2024-01-10T03:45:17;-5.30;99.90
80426;DHT22;69766;51.476;5.704;2024-01-10T03:47:46;-5.30;99.90
80426;DHT22;69766;51.476;5.704;2024-01-10T03:50:18;-5.20;99.90
80426;DHT22;69766;51.476;5.704;2024-01-10T03:52:44;-5.30;99.90
80426;DHT22;69766;51.476;5.704;2024-01-10T03:55:11;-5.30;99.90
80426;DHT22;69766;51.476;5.704;2024-01-10T03:57:38;-5.30;99.90
80426;DHT22;69766;51.476;5.704;2024-01-10T04:00:04;-5.30;99.90
80426;DHT22;69766;51.476;5.704;2024-01-10T04:02:31;-5.40;99.90
80426;DHT22;69766;51.476;5.704;2024-01-10T04:04:57;-5.40;99.90
80426;DHT22;69766;51.476;5.704;2024-01-10T04:07:23;-5.40;99.90
80426;DHT22;69766;51.476;5.704;2024-01-10T04:09:48;-5.40;99.90
80426;DHT22;69766;51.476;5.704;2024-01-10T04:12:14;-5.50;99.90
80426;DHT22;69766;51.476;5.704;2024-01-10T04:14:39;-5.50;99.90
80426;DHT22;69766;51.476;5.704;2024-01-10T04:17:05;-5.50;99.90
80426;DHT22;69766;51.476;5.704;2024-01-10T04:19:32;-5.50;99.90
80426;DHT22;69766;51.476;5.704;2024-01-10T04:21:58;-5.50;99.90
80426;DHT22;69766;51.476;5.704;2024-01-10T04:24:24;-5.50;99.90
80426;DHT22;69766;51.476;5.704;2024-01-10T04:26:50;-5.50;99.90
80426;DHT22;69766;51.476;5.704;2024-01-10T04:29:15;-5.40;99.90
80426;DHT22;69766;51.476;5.704;2024-01-10T04:31:41;-5.40;99.90
80426;DHT22;69766;51.476;5.704;2024-01-10T04:34:07;-5.50;99.90
80426;DHT22;69766;51.476;5.704;2024-01-10T04:36:32;-5.60;99.90
80426;DHT22;69766;51.476;5.704;2024-01-10T04:38:58;-5.70;99.90
80426;DHT22;69766;51.476;5.704;2024-01-10T04:41:23;-5.70;99.90
80426;DHT22;69766;51.476;5.704;2024-01-10T04:43:49;-5.60;99.90
80426;DHT22;69766;51.476;5.704;2024-01-10T04:46:14;-5.60;99.90
80426;DHT22;69766;51.476;5.704;2024-01-10T04:48:40;-5.60;99.90
80426;DHT22;69766;51.476;5.704;2024-01-10T04:51:06;-5.60;99.90
80426;DHT22;69766;51.476;5.704;2024-01-10T04:53:31;-5.60;99.90
80426;DHT22;69766;51.476;5.704;2024-01-10T04:55:57;-5.50;99.90
80426;DHT22;69766;51.476;5.704;2024-01-10T04:58:22;-5.80;99.90
80426;DHT22;69766;51.476;5.704;2024-01-10T05:00:48;-5.70;99.90
80426;DHT22;69766;51.476;5.704;2024-01-10T05:03:14;-5.70;99.90
80426;DHT22;69766;51.476;5.704;2024-01-10T05:05:41;-5.70;99.90
80426;DHT22;69766;51.476;5.704;2024-01-10T05:08:06;-5.70;99.90
80426;DHT22;69766;51.476;5.704;2024-01-10T05:10:32;-5.70;99.90
80426;DHT22;69766;51.476;5.704;2024-01-10T05:12:57;-5.80;99.90
80426;DHT22;69766;51.476;5.704;2024-01-10T05:15:23;-5.70;99.90
80426;DHT22;69766;51.476;5.704;2024-01-10T05:17:48;-5.80;99.90
80426;DHT22;69766;51.476;5.704;2024-01-10T05:20:14;-5.80;99.90
80426;DHT22;69766;51.476;5.704;2024-01-10T05:22:39;-5.90;99.90
80426;DHT22;69766;51.476;5.704;2024-01-10T05:25:05;-5.80;99.90
80426;DHT22;69766;51.476;5.704;2024-01-10T05:27:31;-5.90;99.90
80426;DHT22;69766;51.476;5.704;2024-01-10T05:29:57;-5.70;99.90
80426;DHT22;69766;51.476;5.704;2024-01-10T05:32:22;-5.90;99.90
80426;DHT22;69766;51.476;5.704;2024-01-10T05:34:48;-5.90;99.90
80426;DHT22;69766;51.476;5.704;2024-01-10T05:37:14;-5.90;99.90
80426;DHT22;69766;51.476;5.704;2024-01-10T05:39:40;-5.80;99.90
80426;DHT22;69766;51.476;5.704;2024-01-10T05:42:06;-5.90;99.90
80426;DHT22;69766;51.476;5.704;2024-01-10T05:44:31;-5.80;99.90
80426;DHT22;69766;51.476;5.704;2024-01-10T05:46:57;-6.00;99.90
80426;DHT22;69766;51.476;5.704;2024-01-10T05:49:25;-6.10;99.90
80426;DHT22;69766;51.476;5.704;2024-01-10T05:51:50;-6.10;99.90
80426;DHT22;69766;51.476;5.704;2024-01-10T05:54:16;-6.10;99.90
80426;DHT22;69766;51.476;5.704;2024-01-10T05:56:43;-6.20;99.90
80426;DHT22;69766;51.476;5.704;2024-01-10T05:59:09;-6.10;99.90
80426;DHT22;69766;51.476;5.704;2024-01-10T06:01:36;-6.10;99.90
80426;DHT22;69766;51.476;5.704;2024-01-10T06:04:03;-6.10;99.90
80426;DHT22;69766;51.476;5.704;2024-01-10T06:06:29;-6.20;99.90
80426;DHT22;69766;51.476;5.704;2024-01-10T06:08:55;-6.10;99.90
80426;DHT22;69766;51.476;5.704;2024-01-10T06:11:20;-6.20;99.90
80426;DHT22;69766;51.476;5.704;2024-01-10T06:13:46;-6.20;99.90
80426;DHT22;69766;51.476;5.704;2024-01-10T06:16:12;-6.20;99.90
80426;DHT22;69766;51.476;5.704;2024-01-10T06:18:38;-6.20;99.90
80426;DHT22;69766;51.476;5.704;2024-01-10T06:21:04;-6.20;99.90
80426;DHT22;69766;51.476;5.704;2024-01-10T06:23:30;-6.10;99.90
80426;DHT22;69766;51.476;5.704;2024-01-10T06:25:55;-6.10;99.90
80426;DHT22;69766;51.476;5.704;2024-01-10T06:28:21;-6.10;99.90
80426;DHT22;69766;51.476;5.704;2024-01-10T06:30:47;-6.10;99.90
80426;DHT22;69766;51.476;5.704;2024-01-10T06:33:12;-6.00;99.90
80426;DHT22;69766;51.476;5.704;2024-01-10T06:35:39;-6.10;99.90
80426;DHT22;69766;51.476;5.704;2024-01-10T06:38:04;-6.30;99.90
80426;DHT22;69766;51.476;5.704;2024-01-10T06:40:30;-6.20;99.90
80426;DHT22;69766;51.476;5.704;2024-01-10T06:42:56;-6.30;99.90
80426;DHT22;69766;51.476;5.704;2024-01-10T06:45:22;-6.30;99.90
80426;DHT22;69766;51.476;5.704;2024-01-10T06:47:47;-6.20;99.90
80426;DHT22;69766;51.476;5.704;2024-01-10T06:50:13;-6.20;99.90
80426;DHT22;69766;51.476;5.704;2024-01-10T06:52:38;-6.30;99.90
80426;DHT22;69766;51.476;5.704;2024-01-10T06:55:04;-6.30;99.90
80426;DHT22;69766;51.476;5.704;2024-01-10T06:57:30;-6.30;99.90
80426;DHT22;69766;51.476;5.704;2024-01-10T06:59:55;-6.30;99.90
80426;DHT22;69766;51.476;5.704;2024-01-10T07:02:22;-6.30;99.90
80426;DHT22;69766;51.476;5.704;2024-01-10T07:04:48;-6.30;99.90
80426;DHT22;69766;51.476;5.704;2024-01-10T07:07:14;-6.20;99.90
80426;DHT22;69766;51.476;5.704;2024-01-10T07:09:39;-6.30;99.90
80426;DHT22;69766;51.476;5.704;2024-01-10T07:12:06;-6.30;99.90
80426;DHT22;69766;51.476;5.704;2024-01-10T07:14:32;-6.20;99.90
80426;DHT22;69766;51.476;5.704;2024-01-10T07:16:58;-6.20;99.90
80426;DHT22;69766;51.476;5.704;2024-01-10T07:19:23;-6.30;99.90
80426;DHT22;69766;51.476;5.704;2024-01-10T07:21:49;-6.30;99.90
80426;DHT22;69766;51.476;5.704;2024-01-10T07:24:15;-6.20;99.90
80426;DHT22;69766;51.476;5.704;2024-01-10T07:26:41;-6.30;99.90
80426;DHT22;69766;51.476;5.704;2024-01-10T07:29:06;-6.10;99.90
80426;DHT22;69766;51.476;5.704;2024-01-10T07:31:34;-6.20;99.90
80426;DHT22;69766;51.476;5.704;2024-01-10T07:33:59;-6.20;99.90
80426;DHT22;69766;51.476;5.704;2024-01-10T07:36:25;-6.20;99.90
80426;DHT22;69766;51.476;5.704;2024-01-10T07:38:59;-6.20;99.90
80426;DHT22;69766;51.476;5.704;2024-01-10T07:41:25;-6.20;99.90
80426;DHT22;69766;51.476;5.704;2024-01-10T07:43:50;-6.30;99.90
80426;DHT22;69766;51.476;5.704;2024-01-10T07:46:16;-6.20;99.90
80426;DHT22;69766;51.476;5.704;2024-01-10T07:48:42;-6.20;99.90
80426;DHT22;69766;51.476;5.704;2024-01-10T07:51:07;-6.20;99.90
80426;DHT22;69766;51.476;5.704;2024-01-10T07:53:33;-6.10;99.90
80426;DHT22;69766;51.476;5.704;2024-01-10T07:55:59;-6.00;99.90
80426;DHT22;69766;51.476;5.704;2024-01-10T07:58:24;-6.20;99.90
80426;DHT22;69766;51.476;5.704;2024-01-10T08:00:50;-6.10;99.90
80426;DHT22;69766;51.476;5.704;2024-01-10T08:03:16;-6.10;99.90
80426;DHT22;69766;51.476;5.704;2024-01-10T08:05:42;-6.10;99.90
80426;DHT22;69766;51.476;5.704;2024-01-10T08:08:08;-6.00;99.90
80426;DHT22;69766;51.476;5.704;2024-01-10T08:10:34;-6.00;99.90
80426;DHT22;69766;51.476;5.704;2024-01-10T08:13:00;-6.00;99.90
80426;DHT22;69766;51.476;5.704;2024-01-10T08:15:25;-6.00;99.90
80426;DHT22;69766;51.476;5.704;2024-01-10T08:17:51;-5.90;99.90
80426;DHT22;69766;51.476;5.704;2024-01-10T08:20:16;-5.80;99.90
80426;DHT22;69766;51.476;5.704;2024-01-10T08:22:46;-5.80;99.90
80426;DHT22;69766;51.476;5.704;2024-01-10T08:25:12;-5.80;99.90
80426;DHT22;69766;51.476;5.704;2024-01-10T08:27:38;-5.70;99.90
80426;DHT22;69766;51.476;5.704;2024-01-10T08:30:04;-5.60;99.90
80426;DHT22;69766;51.476;5.704;2024-01-10T08:32:31;-5.60;99.90
80426;DHT22;69766;51.476;5.704;2024-01-10T08:34:57;-5.30;99.90
80426;DHT22;69766;51.476;5.704;2024-01-10T08:37:22;-5.20;99.90
80426;DHT22;69766;51.476;5.704;2024-01-10T08:39:48;-5.10;99.90
80426;DHT22;69766;51.476;5.704;2024-01-10T08:42:15;-5.30;99.90
80426;DHT22;69766;51.476;5.704;2024-01-10T08:44:41;-5.20;99.90
80426;DHT22;69766;51.476;5.704;2024-01-10T08:47:06;-5.30;99.90
80426;DHT22;69766;51.476;5.704;2024-01-10T08:49:33;-5.30;99.90
80426;DHT22;69766;51.476;5.704;2024-01-10T08:51:58;-5.10;99.90
80426;DHT22;69766;51.476;5.704;2024-01-10T08:54:24;-5.20;99.90
80426;DHT22;69766;51.476;5.704;2024-01-10T08:56:50;-5.10;99.90
80426;DHT22;69766;51.476;5.704;2024-01-10T08:59:15;-4.80;99.90
80426;DHT22;69766;51.476;5.704;2024-01-10T09:01:41;-4.70;99.90
80426;DHT22;69766;51.476;5.704;2024-01-10T09:04:07;-4.60;99.90
80426;DHT22;69766;51.476;5.704;2024-01-10T09:06:33;-4.60;99.90
80426;DHT22;69766;51.476;5.704;2024-01-10T09:08:59;-4.50;99.90
80426;DHT22;69766;51.476;5.704;2024-01-10T09:11:24;-4.40;99.90
80426;DHT22;69766;51.476;5.704;2024-01-10T09:13:50;-4.20;99.90
80426;DHT22;69766;51.476;5.704;2024-01-10T09:16:16;-3.80;99.90
80426;DHT22;69766;51.476;5.704;2024-01-10T09:18:42;-3.70;99.90
80426;DHT22;69766;51.476;5.704;2024-01-10T09:21:07;-3.60;99.90
80426;DHT22;69766;51.476;5.704;2024-01-10T09:23:33;-3.70;99.90
80426;DHT22;69766;51.476;5.704;2024-01-10T09:25:58;-4.00;99.90
80426;DHT22;69766;51.476;5.704;2024-01-10T09:28:24;-4.00;99.90
80426;DHT22;69766;51.476;5.704;2024-01-10T09:30:49;-4.00;99.90
80426;DHT22;69766;51.476;5.704;2024-01-10T09:33:17;-4.00;99.90
80426;DHT22;69766;51.476;5.704;2024-01-10T09:35:42;-4.00;99.90
80426;DHT22;69766;51.476;5.704;2024-01-10T09:38:08;-3.80;99.90
80426;DHT22;69766;51.476;5.704;2024-01-10T09:40:33;-3.50;99.90
80426;DHT22;69766;51.476;5.704;2024-01-10T09:42:59;-3.60;99.90
80426;DHT22;69766;51.476;5.704;2024-01-10T09:45:25;-3.70;99.90
80426;DHT22;69766;51.476;5.704;2024-01-10T09:47:55;-3.50;99.90
80426;DHT22;69766;51.476;5.704;2024-01-10T09:50:21;-3.60;99.90
80426;DHT22;69766;51.476;5.704;2024-01-10T09:52:51;-3.50;99.90
80426;DHT22;69766;51.476;5.704;2024-01-10T09:55:19;-3.50;99.90
80426;DHT22;69766;51.476;5.704;2024-01-10T09:57:46;-3.40;99.90
80426;DHT22;69766;51.476;5.704;2024-01-10T10:00:12;-3.30;99.90
80426;DHT22;69766;51.476;5.704;2024-01-10T10:02:38;-3.10;99.90
80426;DHT22;69766;51.476;5.704;2024-01-10T10:05:08;-3.10;99.90
80426;DHT22;69766;51.476;5.704;2024-01-10T10:07:44;-3.00;99.90
80426;DHT22;69766;51.476;5.704;2024-01-10T10:10:10;-3.00;99.90
80426;DHT22;69766;51.476;5.704;2024-01-10T10:12:42;-3.00;99.90
80426;DHT22;69766;51.476;5.704;2024-01-10T10:15:12;-2.90;99.90
80426;DHT22;69766;51.476;5.704;2024-01-10T10:17:39;-2.70;99.90
80426;DHT22;69766;51.476;5.704;2024-01-10T10:20:21;-2.60;99.90
80426;DHT22;69766;51.476;5.704;2024-01-10T10:23:00;-2.60;99.90
80426;DHT22;69766;51.476;5.704;2024-01-10T10:25:27;-2.70;99.90
80426;DHT22;69766;51.476;5.704;2024-01-10T10:27:52;-2.80;99.90
80426;DHT22;69766;51.476;5.704;2024-01-10T10:30:18;-2.60;99.90
80426;DHT22;69766;51.476;5.704;2024-01-10T10:32:43;-2.60;99.90
80426;DHT22;69766;51.476;5.704;2024-01-10T10:35:09;-2.30;99.90
80426;DHT22;69766;51.476;5.704;2024-01-10T10:37:35;-2.30;99.90
80426;DHT22;69766;51.476;5.704;2024-01-10T10:40:01;-2.30;99.90
80426;DHT22;69766;51.476;5.704;2024-01-10T10:42:27;-2.30;99.90
80426;DHT22;69766;51.476;5.704;2024-01-10T10:44:54;-2.30;99.90
80426;DHT22;69766;51.476;5.704;2024-01-10T10:47:23;-2.20;99.90
80426;DHT22;69766;51.476;5.704;2024-01-10T10:49:51;-2.30;99.90
80426;DHT22;69766;51.476;5.704;2024-01-10T10:52:17;-2.30;99.90
80426;DHT22;69766;51.476;5.704;2024-01-10T10:54:46;-2.30;99.90
80426;DHT22;69766;51.476;5.704;2024-01-10T10:57:13;-2.20;99.90
80426;DHT22;69766;51.476;5.704;2024-01-10T10:59:39;-2.10;99.90
80426;DHT22;69766;51.476;5.704;2024-01-10T11:02:06;-2.20;99.90
80426;DHT22;69766;51.476;5.704;2024-01-10T11:04:34;-2.20;99.90
80426;DHT22;69766;51.476;5.704;2024-01-10T11:07:00;-2.00;99.90
80426;DHT22;69766;51.476;5.704;2024-01-10T11:09:25;-2.00;99.90
80426;DHT22;69766;51.476;5.704;2024-01-10T11:25:12;-1.50;98.30
80426;DHT22;69766;51.476;5.704;2024-01-10T11:27:39;-1.50;99.90
80426;DHT22;69766;51.476;5.704;2024-01-10T11:30:05;-1.40;98.50
80426;DHT22;69766;51.476;5.704;2024-01-10T11:32:31;-1.40;99.30
80426;DHT22;69766;51.476;5.704;2024-01-10T11:34:58;-1.40;98.50
80426;DHT22;69766;51.476;5.704;2024-01-10T11:37:42;-1.60;97.30
80426;DHT22;69766;51.476;5.704;2024-01-10T11:40:11;-1.60;98.20
80426;DHT22;69766;51.476;5.704;2024-01-10T11:42:44;-1.60;99.80
80426;DHT22;69766;51.476;5.704;2024-01-10T11:45:56;-1.50;98.40
80426;DHT22;69766;51.476;5.704;2024-01-10T11:47:59;-1.50;98.60
80426;DHT22;69766;51.476;5.704;2024-01-10T11:50:25;-1.50;98.40
80426;DHT22;69766;51.476;5.704;2024-01-10T11:52:54;-1.30;97.70
80426;DHT22;69766;51.476;5.704;2024-01-10T11:58:08;-1.40;97.60
80426;DHT22;69766;51.476;5.704;2024-01-10T12:00:35;-1.40;98.10
80426;DHT22;69766;51.476;5.704;2024-01-10T12:03:01;-1.20;98.90
80426;DHT22;69766;51.476;5.704;2024-01-10T12:05:27;-1.00;98.40
80426;DHT22;69766;51.476;5.704;2024-01-10T12:07:54;-1.00;96.60
80426;DHT22;69766;51.476;5.704;2024-01-10T12:10:20;-0.90;95.70
80426;DHT22;69766;51.476;5.704;2024-01-10T12:12:49;-0.80;96.00
80426;DHT22;69766;51.476;5.704;2024-01-10T12:15:15;-0.70;94.90
80426;DHT22;69766;51.476;5.704;2024-01-10T12:17:41;-0.70;95.70
80426;DHT22;69766;51.476;5.704;2024-01-10T12:20:06;-0.60;95.80
80426;DHT22;69766;51.476;5.704;2024-01-10T12:22:32;-0.70;95.40
80426;DHT22;69766;51.476;5.704;2024-01-10T12:25:03;-0.60;94.40
80426;DHT22;69766;51.476;5.704;2024-01-10T12:27:29;-0.50;93.50
80426;DHT22;69766;51.476;5.704;2024-01-10T12:29:56;-0.30;94.20
80426;DHT22;69766;51.476;5.704;2024-01-10T12:32:21;-0.10;93.30
80426;DHT22;69766;51.476;5.704;2024-01-10T12:37:39;0.30;92.10
80426;DHT22;69766;51.476;5.704;2024-01-10T12:40:06;0.50;92.00
80426;DHT22;69766;51.476;5.704;2024-01-10T12:42:33;0.60;91.30
80426;DHT22;69766;51.476;5.704;2024-01-10T12:45:23;1.10;87.00
80426;DHT22;69766;51.476;5.704;2024-01-10T12:47:49;0.80;87.20
80426;DHT22;69766;51.476;5.704;2024-01-10T12:50:15;0.70;87.40
80426;DHT22;69766;51.476;5.704;2024-01-10T12:52:40;0.60;89.00
80426;DHT22;69766;51.476;5.704;2024-01-10T12:55:09;0.90;86.40
80426;DHT22;69766;51.476;5.704;2024-01-10T12:57:44;1.10;85.50
80426;DHT22;69766;51.476;5.704;2024-01-10T13:00:10;1.90;82.60
80426;DHT22;69766;51.476;5.704;2024-01-10T13:02:52;1.40;82.90
80426;DHT22;69766;51.476;5.704;2024-01-10T13:05:24;1.20;82.20
80426;DHT22;69766;51.476;5.704;2024-01-10T13:07:49;1.10;81.70
80426;DHT22;69766;51.476;5.704;2024-01-10T13:10:16;1.30;82.40
80426;DHT22;69766;51.476;5.704;2024-01-10T13:12:41;1.20;81.80
80426;DHT22;69766;51.476;5.704;2024-01-10T13:15:11;1.30;81.60
80426;DHT22;69766;51.476;5.704;2024-01-10T13:17:40;1.10;81.40
80426;DHT22;69766;51.476;5.704;2024-01-10T13:20:05;1.60;80.00
80426;DHT22;69766;51.476;5.704;2024-01-10T13:22:38;1.70;79.80
80426;DHT22;69766;51.476;5.704;2024-01-10T13:25:03;1.70;79.40
80426;DHT22;69766;51.476;5.704;2024-01-10T13:27:29;1.40;79.10
80426;DHT22;69766;51.476;5.704;2024-01-10T13:29:55;1.50;79.20
80426;DHT22;69766;51.476;5.704;2024-01-10T13:32:20;2.10;77.10
80426;DHT22;69766;51.476;5.704;2024-01-10T13:34:46;1.60;76.90
80426;DHT22;69766;51.476;5.704;2024-01-10T13:37:15;1.50;78.90
80426;DHT22;69766;51.476;5.704;2024-01-10T13:39:41;1.60;79.50
80426;DHT22;69766;51.476;5.704;2024-01-10T13:42:07;1.80;79.60
80426;DHT22;69766;51.476;5.704;2024-01-10T13:44:36;2.40;75.30
80426;DHT22;69766;51.476;5.704;2024-01-10T13:47:01;1.40;76.50
80426;DHT22;69766;51.476;5.704;2024-01-10T13:49:31;1.80;78.40
80426;DHT22;69766;51.476;5.704;2024-01-10T13:51:57;1.40;77.70
80426;DHT22;69766;51.476;5.704;2024-01-10T13:54:22;1.80;78.30
80426;DHT22;69766;51.476;5.704;2024-01-10T13:56:48;2.80;74.50
80426;DHT22;69766;51.476;5.704;2024-01-10T13:59:14;2.70;73.00
80426;DHT22;69766;51.476;5.704;2024-01-10T14:01:40;2.10;75.70
80426;DHT22;69766;51.476;5.704;2024-01-10T14:04:08;1.20;76.30
80426;DHT22;69766;51.476;5.704;2024-01-10T14:06:37;1.20;78.60
80426;DHT22;69766;51.476;5.704;2024-01-10T14:09:03;1.20;77.40
80426;DHT22;69766;51.476;5.704;2024-01-10T14:11:28;1.50;81.50
80426;DHT22;69766;51.476;5.704;2024-01-10T14:13:54;1.70;78.70
80426;DHT22;69766;51.476;5.704;2024-01-10T14:16:20;1.50;77.90
80426;DHT22;69766;51.476;5.704;2024-01-10T14:18:46;0.80;77.70
80426;DHT22;69766;51.476;5.704;2024-01-10T14:21:13;0.60;80.60
80426;DHT22;69766;51.476;5.704;2024-01-10T14:23:39;0.70;80.40
80426;DHT22;69766;51.476;5.704;2024-01-10T14:26:05;0.80;79.40
80426;DHT22;69766;51.476;5.704;2024-01-10T14:28:31;0.90;79.50
80426;DHT22;69766;51.476;5.704;2024-01-10T14:30:58;0.40;79.90
80426;DHT22;69766;51.476;5.704;2024-01-10T14:33:24;0.30;82.10
80426;DHT22;69766;51.476;5.704;2024-01-10T14:35:49;0.40;82.90
80426;DHT22;69766;51.476;5.704;2024-01-10T14:38:15;0.60;83.10
80426;DHT22;69766;51.476;5.704;2024-01-10T14:40:41;0.50;84.50
80426;DHT22;69766;51.476;5.704;2024-01-10T14:43:07;0.50;82.00
80426;DHT22;69766;51.476;5.704;2024-01-10T14:45:32;0.10;84.80
80426;DHT22;69766;51.476;5.704;2024-01-10T14:47:58;-0.10;85.40
80426;DHT22;69766;51.476;5.704;2024-01-10T14:50:24;-0.10;87.70
80426;DHT22;69766;51.476;5.704;2024-01-10T14:52:50;-0.10;87.40
80426;DHT22;69766;51.476;5.704;2024-01-10T14:55:15;-0.20;87.80
80426;DHT22;69766;51.476;5.704;2024-01-10T14:57:41;-0.20;88.20
80426;DHT22;69766;51.476;5.704;2024-01-10T15:00:07;-0.30;87.70
80426;DHT22;69766;51.476;5.704;2024-01-10T15:02:33;-0.20;88.50
80426;DHT22;69766;51.476;5.704;2024-01-10T15:04:59;-0.30;88.20
80426;DHT22;69766;51.476;5.704;2024-01-10T15:07:25;-0.20;89.70
80426;DHT22;69766;51.476;5.704;2024-01-10T15:09:51;-0.30;90.20
80426;DHT22;69766;51.476;5.704;2024-01-10T15:12:17;-0.40;90.20
80426;DHT22;69766;51.476;5.704;2024-01-10T15:14:42;-0.40;91.00
80426;DHT22;69766;51.476;5.704;2024-01-10T15:17:08;-0.50;91.50
80426;DHT22;69766;51.476;5.704;2024-01-10T15:19:34;-0.50;91.80
80426;DHT22;69766;51.476;5.704;2024-01-10T15:22:01;-0.50;91.90
80426;DHT22;69766;51.476;5.704;2024-01-10T15:24:30;-0.50;91.90
80426;DHT22;69766;51.476;5.704;2024-01-10T15:26:55;-0.50;92.90
80426;DHT22;69766;51.476;5.704;2024-01-10T15:29:28;-0.50;92.50
80426;DHT22;69766;51.476;5.704;2024-01-10T15:31:54;-0.50;92.90
80426;DHT22;69766;51.476;5.704;2024-01-10T15:34:20;-0.50;92.90
80426;DHT22;69766;51.476;5.704;2024-01-10T15:36:45;-0.50;92.50
80426;DHT22;69766;51.476;5.704;2024-01-10T15:39:12;-0.50;92.50
80426;DHT22;69766;51.476;5.704;2024-01-10T15:41:38;-0.60;93.00
80426;DHT22;69766;51.476;5.704;2024-01-10T15:44:04;-0.50;94.40
80426;DHT22;69766;51.476;5.704;2024-01-10T15:46:41;-0.60;94.20